sensor_id;sensor_type;location;lat;lon;timestamp;temperature;humidity
9980;DHT22;5030;51.532;6.766;2023-02-11T00:01:48;6.70;99.90
9980;DHT22;5030;51.532;6.766;2023-02-11T00:04:14;6.70;99.90
9980;DHT22;5030;51.532;6.766;2023-02-11T00:06:40;6.70;99.90
9980;DHT22;5030;51.532;6.766;2023-02-11T00:09:06;6.70;99.90
9980;DHT22;5030;51.532;6.766;2023-02-11T00:11:32;6.70;99.90
9980;DHT22;5030;51.532;6.766;2023-02-11T00:14:03;6.70;99.90
9980;DHT22;5030;51.532;6.766;2023-02-11T00:16:30;6.70;99.90
9980;DHT22;5030;51.532;6.766;2023-02-11T00:18:58;6.70;99.90
9980;DHT22;5030;51.532;6.766;2023-02-11T00:21:25;6.70;99.90
9980;DHT22;5030;51.532;6.766;2023-02-11T00:23:52;6.70;99.90
9980;DHT22;5030;51.532;6.766;2023-02-11T00:26:25;6.80;99.90
9980;DHT22;5030;51.532;6.766;2023-02-11T00:28:51;6.80;99.90
9980;DHT22;5030;51.532;6.766;2023-02-11T00:31:19;6.70;99.90
9980;DHT22;5030;51.532;6.766;2023-02-11T00:33:45;6.90;99.90
9980;DHT22;5030;51.532;6.766;2023-02-11T00:36:14;6.80;99.90
9980;DHT22;5030;51.532;6.766;2023-02-11T00:38:42;6.80;99.90
9980;DHT22;5030;51.532;6.766;2023-02-11T00:41:09;6.80;99.90
9980;DHT22;5030;51.532;6.766;2023-02-11T00:43:34;6.70;99.90
9980;DHT22;5030;51.532;6.766;2023-02-11T00:46:01;6.70;99.90
9980;DHT22;5030;51.532;6.766;2023-02-11T00:48:27;6.70;99.90
9980;DHT22;5030;51.532;6.766;2023-02-11T00:50:53;6.80;99.90
9980;DHT22;5030;51.532;6.766;2023-02-11T00:53:20;6.70;99.90
9980;DHT22;5030;51.532;6.766;2023-02-11T00:55:45;6.70;99.90
9980;DHT22;5030;51.532;6.766;2023-02-11T00:58:11;6.70;99.90
9980;DHT22;5030;51.532;6.766;2023-02-11T01:00:36;6.70;99.90
9980;DHT22;5030;51.532;6.766;2023-02-11T01:03:02;6.70;99.90
9980;DHT22;5030;51.532;6.766;2023-02-11T01:05:28;6.70;99.90
9980;DHT22;5030;51.532;6.766;2023-02-11T01:07:54;6.70;99.90
9980;DHT22;5030;51.532;6.766;2023-02-11T01:10:19;6.80;99.90
9980;DHT22;5030;51.532;6.766;2023-02-11T01:12:45;6.80;99.90
9980;DHT22;5030;51.532;6.766;2023-02-11T01:15:13;6.70;99.90
9980;DHT22;5030;51.532;6.766;2023-02-11T01:17:39;6.80;99.90
9980;DHT22;5030;51.532;6.766;2023-02-11T01:20:10;6.70;99.90
9980;DHT22;5030;51.532;6.766;2023-02-11T01:22:36;6.70;99.90
9980;DHT22;5030;51.532;6.766;2023-02-11T01:25:05;6.70;99.90
9980;DHT22;5030;51.532;6.766;2023-02-11T01:27:30;6.60;99.90
9980;DHT22;5030;51.532;6.766;2023-02-11T01:29:57;6.70;99.90
9980;DHT22;5030;51.532;6.766;2023-02-11T01:32:23;6.70;99.90
9980;DHT22;5030;51.532;6.766;2023-02-11T01:34:48;6.70;99.90
9980;DHT22;5030;51.532;6.766;2023-02-11T01:37:14;6.80;99.90
9980;DHT22;5030;51.532;6.766;2023-02-11T01:39:41;6.70;99.90
9980;DHT22;5030;51.532;6.766;2023-02-11T01:42:08;6.60;99.90
9980;DHT22;5030;51.532;6.766;2023-02-11T01:44:37;6.70;99.90
9980;DHT22;5030;51.532;6.766;2023-02-11T01:47:05;6.70;99.90
9980;DHT22;5030;51.532;6.766;2023-02-11T01:49:33;6.70;99.90
9980;DHT22;5030;51.532;6.766;2023-02-11T01:55:01;6.60;99.90
9980;DHT22;5030;51.532;6.766;2023-02-11T01:57:50;6.60;99.90
9980;DHT22;5030;51.532;6.766;2023-02-11T02:00:37;6.70;99.90
9980;DHT22;5030;51.532;6.766;2023-02-11T02:03:13;6.60;99.90
9980;DHT22;5030;51.532;6.766;2023-02-11T02:05:50;6.50;99.90
9980;DHT22;5030;51.532;6.766;2023-02-11T02:08:22;6.60;99.90
9980;DHT22;5030;51.532;6.766;2023-02-11T02:10:51;6.60;99.90
9980;DHT22;5030;51.532;6.766;2023-02-11T02:13:21;6.60;99.90
9980;DHT22;5030;51.532;6.766;2023-02-11T02:29:21;6.50;99.90
9980;DHT22;5030;51.532;6.766;2023-02-11T02:43:11;6.60;99.90
9980;DHT22;5030;51.532;6.766;2023-02-11T02:45:37;6.50;99.90
9980;DHT22;5030;51.532;6.766;2023-02-11T02:48:02;6.60;99.90
9980;DHT22;5030;51.532;6.766;2023-02-11T02:50:32;6.70;99.90
9980;DHT22;5030;51.532;6.766;2023-02-11T02:53:52;6.70;99.90
9980;DHT22;5030;51.532;6.766;2023-02-11T03:06:51;6.40;99.90
9980;DHT22;5030;51.532;6.766;2023-02-11T03:09:30;6.40;99.90
9980;DHT22;5030;51.532;6.766;2023-02-11T03:12:01;6.50;99.90
9980;DHT22;5030;51.532;6.766;2023-02-11T03:14:28;6.50;99.90
9980;DHT22;5030;51.532;6.766;2023-02-11T03:16:57;6.50;99.90
9980;DHT22;5030;51.532;6.766;2023-02-11T03:19:50;6.40;99.90
9980;DHT22;5030;51.532;6.766;2023-02-11T03:22:24;6.30;99.90
9980;DHT22;5030;51.532;6.766;2023-02-11T03:24:54;6.20;99.90
9980;DHT22;5030;51.532;6.766;2023-02-11T03:27:36;6.40;99.90
9980;DHT22;5030;51.532;6.766;2023-02-11T03:30:12;6.40;99.90
9980;DHT22;5030;51.532;6.766;2023-02-11T03:32:44;6.40;99.90
9980;DHT22;5030;51.532;6.766;2023-02-11T03:35:28;6.30;99.90
9980;DHT22;5030;51.532;6.766;2023-02-11T03:38:01;6.30;99.90
9980;DHT22;5030;51.532;6.766;2023-02-11T03:40:31;6.20;99.90
9980;DHT22;5030;51.532;6.766;2023-02-11T03:43:06;6.30;99.90
9980;DHT22;5030;51.532;6.766;2023-02-11T03:45:35;6.30;99.90
9980;DHT22;5030;51.532;6.766;2023-02-11T03:48:25;6.30;99.90
9980;DHT22;5030;51.532;6.766;2023-02-11T03:50:53;6.30;99.90
9980;DHT22;5030;51.532;6.766;2023-02-11T03:53:21;6.20;99.90
9980;DHT22;5030;51.532;6.766;2023-02-11T03:55:49;6.20;99.90
9980;DHT22;5030;51.532;6.766;2023-02-11T03:58:15;6.20;99.90
9980;DHT22;5030;51.532;6.766;2023-02-11T04:00:43;6.20;99.90
9980;DHT22;5030;51.532;6.766;2023-02-11T04:03:10;6.20;99.90
9980;DHT22;5030;51.532;6.766;2023-02-11T04:05:36;6.30;99.90
9980;DHT22;5030;51.532;6.766;2023-02-11T04:08:02;6.20;99.90
9980;DHT22;5030;51.532;6.766;2023-02-11T04:10:28;6.10;99.90
9980;DHT22;5030;51.532;6.766;2023-02-11T04:12:53;6.00;99.90
9980;DHT22;5030;51.532;6.766;2023-02-11T04:15:19;6.00;99.90
9980;DHT22;5030;51.532;6.766;2023-02-11T04:17:45;6.00;99.90
9980;DHT22;5030;51.532;6.766;2023-02-11T04:20:10;6.10;99.90
9980;DHT22;5030;51.532;6.766;2023-02-11T04:22:36;6.00;99.90
9980;DHT22;5030;51.532;6.766;2023-02-11T04:25:04;6.10;99.90
9980;DHT22;5030;51.532;6.766;2023-02-11T04:27:30;6.00;99.90
9980;DHT22;5030;51.532;6.766;2023-02-11T04:29:55;6.00;99.90
9980;DHT22;5030;51.532;6.766;2023-02-11T04:32:21;6.00;99.90
9980;DHT22;5030;51.532;6.766;2023-02-11T04:34:47;5.90;99.90
9980;DHT22;5030;51.532;6.766;2023-02-11T04:37:13;6.00;99.90
9980;DHT22;5030;51.532;6.766;2023-02-11T04:39:39;6.00;99.90
9980;DHT22;5030;51.532;6.766;2023-02-11T04:42:04;6.00;99.90
9980;DHT22;5030;51.532;6.766;2023-02-11T04:44:30;6.00;99.90
9980;DHT22;5030;51.532;6.766;2023-02-11T04:46:56;6.00;99.90
9980;DHT22;5030;51.532;6.766;2023-02-11T04:49:22;6.00;99.90
9980;DHT22;5030;51.532;6.766;2023-02-11T04:51:47;6.10;99.90
9980;DHT22;5030;51.532;6.766;2023-02-11T04:54:14;6.00;99.90
9980;DHT22;5030;51.532;6.766;2023-02-11T04:56:40;6.00;99.90
9980;DHT22;5030;51.532;6.766;2023-02-11T04:59:06;6.00;99.90
9980;DHT22;5030;51.532;6.766;2023-02-11T05:01:32;5.90;99.90
9980;DHT22;5030;51.532;6.766;2023-02-11T05:03:58;6.00;99.90
9980;DHT22;5030;51.532;6.766;2023-02-11T05:06:23;6.00;99.90
9980;DHT22;5030;51.532;6.766;2023-02-11T05:08:50;6.00;99.90
9980;DHT22;5030;51.532;6.766;2023-02-11T05:11:21;6.00;99.90
9980;DHT22;5030;51.532;6.766;2023-02-11T05:13:47;6.10;99.90
9980;DHT22;5030;51.532;6.766;2023-02-11T05:16:13;6.10;99.90
9980;DHT22;5030;51.532;6.766;2023-02-11T05:18:40;6.10;99.90
9980;DHT22;5030;51.532;6.766;2023-02-11T05:21:11;6.10;99.90
9980;DHT22;5030;51.532;6.766;2023-02-11T05:23:38;6.20;99.90
9980;DHT22;5030;51.532;6.766;2023-02-11T05:26:04;6.00;99.90
9980;DHT22;5030;51.532;6.766;2023-02-11T05:28:30;6.00;99.90
9980;DHT22;5030;51.532;6.766;2023-02-11T05:30:56;6.00;99.90
9980;DHT22;5030;51.532;6.766;2023-02-11T05:33:22;6.00;99.90
9980;DHT22;5030;51.532;6.766;2023-02-11T05:35:47;6.20;99.90
9980;DHT22;5030;51.532;6.766;2023-02-11T05:38:13;6.00;99.90
9980;DHT22;5030;51.532;6.766;2023-02-11T05:40:42;6.10;99.90
9980;DHT22;5030;51.532;6.766;2023-02-11T05:43:08;6.00;99.90
9980;DHT22;5030;51.532;6.766;2023-02-11T05:45:33;6.10;99.90
9980;DHT22;5030;51.532;6.766;2023-02-11T05:47:59;6.10;99.90
9980;DHT22;5030;51.532;6.766;2023-02-11T05:50:25;6.00;99.90
9980;DHT22;5030;51.532;6.766;2023-02-11T05:52:51;6.00;99.90
9980;DHT22;5030;51.532;6.766;2023-02-11T05:55:16;6.10;99.90
9980;DHT22;5030;51.532;6.766;2023-02-11T05:57:42;6.00;99.90
9980;DHT22;5030;51.532;6.766;2023-02-11T06:00:08;6.10;99.90
9980;DHT22;5030;51.532;6.766;2023-02-11T06:02:34;6.10;99.90
9980;DHT22;5030;51.532;6.766;2023-02-11T06:05:00;6.10;99.90
9980;DHT22;5030;51.532;6.766;2023-02-11T06:07:25;6.10;99.90
9980;DHT22;5030;51.532;6.766;2023-02-11T06:09:51;6.20;99.90
9980;DHT22;5030;51.532;6.766;2023-02-11T06:12:17;6.10;99.90
9980;DHT22;5030;51.532;6.766;2023-02-11T06:14:42;6.20;99.90
9980;DHT22;5030;51.532;6.766;2023-02-11T06:17:08;6.10;99.90
9980;DHT22;5030;51.532;6.766;2023-02-11T06:19:34;6.00;99.90
9980;DHT22;5030;51.532;6.766;2023-02-11T06:21:59;5.90;99.90
9980;DHT22;5030;51.532;6.766;2023-02-11T06:24:25;6.10;99.90
9980;DHT22;5030;51.532;6.766;2023-02-11T06:26:51;6.10;99.90
9980;DHT22;5030;51.532;6.766;2023-02-11T06:29:16;6.10;99.90
9980;DHT22;5030;51.532;6.766;2023-02-11T06:31:42;6.10;99.90
9980;DHT22;5030;51.532;6.766;2023-02-11T06:34:09;6.20;99.90
9980;DHT22;5030;51.532;6.766;2023-02-11T06:36:35;6.10;99.90
9980;DHT22;5030;51.532;6.766;2023-02-11T06:39:01;6.10;99.90
9980;DHT22;5030;51.532;6.766;2023-02-11T06:41:26;6.10;99.90
9980;DHT22;5030;51.532;6.766;2023-02-11T06:43:52;5.90;99.90
9980;DHT22;5030;51.532;6.766;2023-02-11T06:46:18;6.10;99.90
9980;DHT22;5030;51.532;6.766;2023-02-11T06:48:44;6.10;99.90
9980;DHT22;5030;51.532;6.766;2023-02-11T06:51:11;6.00;99.90
9980;DHT22;5030;51.532;6.766;2023-02-11T06:53:42;5.90;99.90
9980;DHT22;5030;51.532;6.766;2023-02-11T06:56:11;6.00;99.90
9980;DHT22;5030;51.532;6.766;2023-02-11T06:58:37;6.00;99.90
9980;DHT22;5030;51.532;6.766;2023-02-11T07:01:07;6.10;99.90
9980;DHT22;5030;51.532;6.766;2023-02-11T07:03:34;6.10;99.90
9980;DHT22;5030;51.532;6.766;2023-02-11T07:06:02;6.10;99.90
9980;DHT22;5030;51.532;6.766;2023-02-11T07:08:28;6.20;99.90
9980;DHT22;5030;51.532;6.766;2023-02-11T07:10:53;6.20;99.90
9980;DHT22;5030;51.532;6.766;2023-02-11T07:13:19;6.10;99.90
9980;DHT22;5030;51.532;6.766;2023-02-11T07:15:45;5.90;99.90
9980;DHT22;5030;51.532;6.766;2023-02-11T07:18:10;6.20;99.90
9980;DHT22;5030;51.532;6.766;2023-02-11T07:20:37;6.20;99.90
9980;DHT22;5030;51.532;6.766;2023-02-11T07:23:03;6.10;99.90
9980;DHT22;5030;51.532;6.766;2023-02-11T07:25:29;5.90;99.90
9980;DHT22;5030;51.532;6.766;2023-02-11T07:27:55;6.20;99.90
9980;DHT22;5030;51.532;6.766;2023-02-11T07:30:20;6.20;99.90
9980;DHT22;5030;51.532;6.766;2023-02-11T07:32:47;6.40;99.90
9980;DHT22;5030;51.532;6.766;2023-02-11T07:35:12;5.90;99.90
9980;DHT22;5030;51.532;6.766;2023-02-11T07:37:39;6.30;99.90
9980;DHT22;5030;51.532;6.766;2023-02-11T07:40:06;6.30;99.90
9980;DHT22;5030;51.532;6.766;2023-02-11T07:42:33;6.20;99.90
9980;DHT22;5030;51.532;6.766;2023-02-11T07:45:00;6.20;99.90
9980;DHT22;5030;51.532;6.766;2023-02-11T07:47:25;6.20;99.90
9980;DHT22;5030;51.532;6.766;2023-02-11T07:49:52;6.40;99.90
9980;DHT22;5030;51.532;6.766;2023-02-11T07:52:18;6.50;99.90
9980;DHT22;5030;51.532;6.766;2023-02-11T07:54:44;6.30;99.90
9980;DHT22;5030;51.532;6.766;2023-02-11T07:57:10;6.30;99.90
9980;DHT22;5030;51.532;6.766;2023-02-11T07:59:36;6.30;99.90
9980;DHT22;5030;51.532;6.766;2023-02-11T08:02:02;6.20;99.90
9980;DHT22;5030;51.532;6.766;2023-02-11T08:04:27;6.50;99.90
9980;DHT22;5030;51.532;6.766;2023-02-11T08:06:53;6.30;99.90
9980;DHT22;5030;51.532;6.766;2023-02-11T08:09:21;6.40;99.90
9980;DHT22;5030;51.532;6.766;2023-02-11T08:11:47;6.50;99.90
9980;DHT22;5030;51.532;6.766;2023-02-11T08:14:13;6.30;99.90
9980;DHT22;5030;51.532;6.766;2023-02-11T08:16:39;6.40;99.90
9980;DHT22;5030;51.532;6.766;2023-02-11T08:19:09;6.40;99.90
9980;DHT22;5030;51.532;6.766;2023-02-11T08:21:35;6.50;99.90
9980;DHT22;5030;51.532;6.766;2023-02-11T08:24:01;6.60;99.90
9980;DHT22;5030;51.532;6.766;2023-02-11T08:26:30;6.60;99.90
9980;DHT22;5030;51.532;6.766;2023-02-11T08:29:12;6.60;99.90
9980;DHT22;5030;51.532;6.766;2023-02-11T08:31:40;6.50;99.90
9980;DHT22;5030;51.532;6.766;2023-02-11T08:34:06;6.50;99.90
9980;DHT22;5030;51.532;6.766;2023-02-11T08:36:34;6.70;99.90
9980;DHT22;5030;51.532;6.766;2023-02-11T08:39:03;6.60;99.90
9980;DHT22;5030;51.532;6.766;2023-02-11T08:41:30;6.50;99.90
9980;DHT22;5030;51.532;6.766;2023-02-11T08:43:56;6.50;99.90
9980;DHT22;5030;51.532;6.766;2023-02-11T08:46:22;6.60;99.90
9980;DHT22;5030;51.532;6.766;2023-02-11T08:48:47;6.70;99.90
9980;DHT22;5030;51.532;6.766;2023-02-11T08:51:19;6.50;99.90
9980;DHT22;5030;51.532;6.766;2023-02-11T08:53:45;6.70;99.90
9980;DHT22;5030;51.532;6.766;2023-02-11T08:56:13;6.80;99.90
9980;DHT22;5030;51.532;6.766;2023-02-11T08:58:40;6.90;99.90
9980;DHT22;5030;51.532;6.766;2023-02-11T09:01:14;6.80;99.90
9980;DHT22;5030;51.532;6.766;2023-02-11T09:03:41;6.80;99.90
9980;DHT22;5030;51.532;6.766;2023-02-11T09:06:08;7.00;99.90
9980;DHT22;5030;51.532;6.766;2023-02-11T09:08:42;7.00;99.90
9980;DHT22;5030;51.532;6.766;2023-02-11T09:11:09;6.90;99.90
9980;DHT22;5030;51.532;6.766;2023-02-11T09:13:35;7.00;99.90
9980;DHT22;5030;51.532;6.766;2023-02-11T09:16:03;7.10;99.90
9980;DHT22;5030;51.532;6.766;2023-02-11T09:18:29;6.90;99.90
9980;DHT22;5030;51.532;6.766;2023-02-11T09:21:05;7.00;99.90
9980;DHT22;5030;51.532;6.766;2023-02-11T09:23:31;7.10;99.90
9980;DHT22;5030;51.532;6.766;2023-02-11T09:26:06;7.10;99.90
9980;DHT22;5030;51.532;6.766;2023-02-11T09:28:32;7.30;99.90
9980;DHT22;5030;51.532;6.766;2023-02-11T09:30:57;7.20;99.90
9980;DHT22;5030;51.532;6.766;2023-02-11T09:33:24;7.30;99.90
9980;DHT22;5030;51.532;6.766;2023-02-11T09:35:50;7.30;99.90
9980;DHT22;5030;51.532;6.766;2023-02-11T09:38:15;7.30;99.90
9980;DHT22;5030;51.532;6.766;2023-02-11T09:40:43;7.20;99.90
9980;DHT22;5030;51.532;6.766;2023-02-11T09:43:20;7.40;99.90
9980;DHT22;5030;51.532;6.766;2023-02-11T09:45:47;7.40;99.90
9980;DHT22;5030;51.532;6.766;2023-02-11T09:48:17;7.50;99.90
9980;DHT22;5030;51.532;6.766;2023-02-11T09:50:50;7.50;99.90
9980;DHT22;5030;51.532;6.766;2023-02-11T09:55:54;7.50;99.90
9980;DHT22;5030;51.532;6.766;2023-02-11T09:58:35;7.50;99.90
9980;DHT22;5030;51.532;6.766;2023-02-11T10:06:55;7.60;99.90
9980;DHT22;5030;51.532;6.766;2023-02-11T10:20:38;8.00;99.90
9980;DHT22;5030;51.532;6.766;2023-02-11T10:23:21;7.90;99.90
9980;DHT22;5030;51.532;6.766;2023-02-11T10:25:51;8.00;99.90
9980;DHT22;5030;51.532;6.766;2023-02-11T10:28:23;8.00;99.90
9980;DHT22;5030;51.532;6.766;2023-02-11T10:33:28;7.90;99.90
9980;DHT22;5030;51.532;6.766;2023-02-11T10:35:55;7.90;99.90
9980;DHT22;5030;51.532;6.766;2023-02-11T10:38:21;7.80;99.90
9980;DHT22;5030;51.532;6.766;2023-02-11T10:40:46;7.90;99.90
9980;DHT22;5030;51.532;6.766;2023-02-11T10:43:16;8.00;99.90
9980;DHT22;5030;51.532;6.766;2023-02-11T10:45:47;8.00;99.90
9980;DHT22;5030;51.532;6.766;2023-02-11T10:53:47;8.00;99.90
9980;DHT22;5030;51.532;6.766;2023-02-11T10:56:25;8.00;99.90
9980;DHT22;5030;51.532;6.766;2023-02-11T11:02:03;8.00;99.90
9980;DHT22;5030;51.532;6.766;2023-02-11T11:04:34;8.00;99.90
9980;DHT22;5030;51.532;6.766;2023-02-11T11:09:55;8.00;99.90
9980;DHT22;5030;51.532;6.766;2023-02-11T11:12:25;7.80;99.90
9980;DHT22;5030;51.532;6.766;2023-02-11T11:15:13;8.10;99.90
9980;DHT22;5030;51.532;6.766;2023-02-11T11:17:41;8.10;99.90
9980;DHT22;5030;51.532;6.766;2023-02-11T11:22:45;8.00;99.90
9980;DHT22;5030;51.532;6.766;2023-02-11T11:25:26;8.10;99.90
9980;DHT22;5030;51.532;6.766;2023-02-11T11:27:57;8.10;99.90
9980;DHT22;5030;51.532;6.766;2023-02-11T11:30:30;8.10;99.90
9980;DHT22;5030;51.532;6.766;2023-02-11T11:32:58;8.20;99.90
9980;DHT22;5030;51.532;6.766;2023-02-11T11:35:27;8.20;99.90
9980;DHT22;5030;51.532;6.766;2023-02-11T11:37:58;8.10;99.90
9980;DHT22;5030;51.532;6.766;2023-02-11T11:40:27;8.10;99.90
9980;DHT22;5030;51.532;6.766;2023-02-11T11:45:59;8.20;99.90
9980;DHT22;5030;51.532;6.766;2023-02-11T11:48:55;8.20;99.90
9980;DHT22;5030;51.532;6.766;2023-02-11T11:51:23;8.30;99.90
9980;DHT22;5030;51.532;6.766;2023-02-11T11:53:58;8.20;99.90
9980;DHT22;5030;51.532;6.766;2023-02-11T11:56:29;8.20;99.90
9980;DHT22;5030;51.532;6.766;2023-02-11T11:58:59;8.30;99.90
9980;DHT22;5030;51.532;6.766;2023-02-11T12:01:58;8.40;99.90
9980;DHT22;5030;51.532;6.766;2023-02-11T12:07:37;8.30;99.90
9980;DHT22;5030;51.532;6.766;2023-02-11T12:15:47;8.50;99.90
9980;DHT22;5030;51.532;6.766;2023-02-11T12:18:41;8.40;99.90
9980;DHT22;5030;51.532;6.766;2023-02-11T12:26:19;8.30;99.90
9980;DHT22;5030;51.532;6.766;2023-02-11T12:29:12;8.40;99.90
9980;DHT22;5030;51.532;6.766;2023-02-11T12:31:58;8.40;99.90
9980;DHT22;5030;51.532;6.766;2023-02-11T12:34:47;8.30;99.90
9980;DHT22;5030;51.532;6.766;2023-02-11T12:37:31;8.40;99.90
9980;DHT22;5030;51.532;6.766;2023-02-11T12:51:12;8.50;99.90
9980;DHT22;5030;51.532;6.766;2023-02-11T12:56:48;8.70;99.90
9980;DHT22;5030;51.532;6.766;2023-02-11T13:02:05;8.70;99.90
9980;DHT22;5030;51.532;6.766;2023-02-11T13:04:43;8.80;99.90
9980;DHT22;5030;51.532;6.766;2023-02-11T13:07:29;8.70;99.90
9980;DHT22;5030;51.532;6.766;2023-02-11T13:10:02;8.90;99.90
9980;DHT22;5030;51.532;6.766;2023-02-11T13:12:32;8.80;99.90
9980;DHT22;5030;51.532;6.766;2023-02-11T13:15:18;8.80;99.90
9980;DHT22;5030;51.532;6.766;2023-02-11T13:18:01;8.90;99.90
9980;DHT22;5030;51.532;6.766;2023-02-11T13:20:37;8.90;99.90
9980;DHT22;5030;51.532;6.766;2023-02-11T13:28:56;8.80;99.90
9980;DHT22;5030;51.532;6.766;2023-02-11T13:31:27;8.80;99.90
9980;DHT22;5030;51.532;6.766;2023-02-11T13:33:54;8.90;99.90
9980;DHT22;5030;51.532;6.766;2023-02-11T13:36:23;8.90;99.90
9980;DHT22;5030;51.532;6.766;2023-02-11T13:38:52;8.80;99.90
9980;DHT22;5030;51.532;6.766;2023-02-11T13:41:25;9.00;99.90
9980;DHT22;5030;51.532;6.766;2023-02-11T13:46:28;9.10;99.90
9980;DHT22;5030;51.532;6.766;2023-02-11T13:48:55;9.20;99.90
9980;DHT22;5030;51.532;6.766;2023-02-11T13:51:39;9.30;99.90
9980;DHT22;5030;51.532;6.766;2023-02-11T13:54:06;9.30;99.90
9980;DHT22;5030;51.532;6.766;2023-02-11T13:56:38;9.40;99.90
9980;DHT22;5030;51.532;6.766;2023-02-11T14:02:04;9.40;99.90
9980;DHT22;5030;51.532;6.766;2023-02-11T14:05:23;9.40;99.90
9980;DHT22;5030;51.532;6.766;2023-02-11T14:11:01;9.40;99.90
9980;DHT22;5030;51.532;6.766;2023-02-11T14:16:13;9.50;99.90
9980;DHT22;5030;51.532;6.766;2023-02-11T14:21:33;10.00;99.90
9980;DHT22;5030;51.532;6.766;2023-02-11T14:37:30;9.90;99.90
9980;DHT22;5030;51.532;6.766;2023-02-11T14:42:30;10.00;99.90
9980;DHT22;5030;51.532;6.766;2023-02-11T14:45:03;10.20;99.90
9980;DHT22;5030;51.532;6.766;2023-02-11T14:47:45;10.30;99.90
9980;DHT22;5030;51.532;6.766;2023-02-11T14:50:23;10.10;99.90
9980;DHT22;5030;51.532;6.766;2023-02-11T14:52:50;9.90;99.90
9980;DHT22;5030;51.532;6.766;2023-02-11T14:55:32;10.00;99.90
9980;DHT22;5030;51.532;6.766;2023-02-11T14:58:16;10.00;99.90
9980;DHT22;5030;51.532;6.766;2023-02-11T15:03:40;9.80;99.90
9980;DHT22;5030;51.532;6.766;2023-02-11T15:06:16;9.70;99.90
9980;DHT22;5030;51.532;6.766;2023-02-11T15:08:51;9.70;99.90
9980;DHT22;5030;51.532;6.766;2023-02-11T15:11:20;9.80;99.90
9980;DHT22;5030;51.532;6.766;2023-02-11T15:13:47;9.60;99.90
9980;DHT22;5030;51.532;6.766;2023-02-11T15:16:16;9.40;99.90
9980;DHT22;5030;51.532;6.766;2023-02-11T15:19:04;9.50;99.90
9980;DHT22;5030;51.532;6.766;2023-02-11T15:21:33;9.70;99.90
9980;DHT22;5030;51.532;6.766;2023-02-11T15:26:44;9.50;99.90
9980;DHT22;5030;51.532;6.766;2023-02-11T15:29:16;9.60;99.90
9980;DHT22;5030;51.532;6.766;2023-02-11T15:31:41;9.50;99.90
9980;DHT22;5030;51.532;6.766;2023-02-11T15:34:07;9.50;99.90
9980;DHT22;5030;51.532;6.766;2023-02-11T15:36:33;9.50;99.90
9980;DHT22;5030;51.532;6.766;2023-02-11T15:41:41;9.50;99.90
9980;DHT22;5030;51.532;6.766;2023-02-11T15:44:34;9.50;99.90
9980;DHT22;5030;51.532;6.766;2023-02-11T15:46:59;9.60;99.90
9980;DHT22;5030;51.532;6.766;2023-02-11T15:49:25;9.50;99.90
9980;DHT22;5030;51.532;6.766;2023-02-11T15:51:53;9.60;99.90
9980;DHT22;5030;51.532;6.766;2023-02-11T15:54:22;9.50;99.90
9980;DHT22;5030;51.532;6.766;2023-02-11T15:56:52;9.50;99.90
9980;DHT22;5030;51.532;6.766;2023-02-11T16:02:20;9.40;99.90
9980;DHT22;5030;51.532;6.766;2023-02-11T16:04:55;9.30;99.90
9980;DHT22;5030;51.532;6.766;2023-02-11T16:07:42;9.50;99.90
9980;DHT22;5030;51.532;6.766;2023-02-11T16:10:22;9.40;99.90
9980;DHT22;5030;51.532;6.766;2023-02-11T16:18:00;9.10;99.90
9980;DHT22;5030;51.532;6.766;2023-02-11T16:20:26;9.10;99.90
9980;DHT22;5030;51.532;6.766;2023-02-11T16:22:52;9.10;99.90
9980;DHT22;5030;51.532;6.766;2023-02-11T16:25:19;9.20;99.90
9980;DHT22;5030;51.532;6.766;2023-02-11T16:27:52;9.20;99.90
9980;DHT22;5030;51.532;6.766;2023-02-11T16:30:35;9.30;99.90
9980;DHT22;5030;51.532;6.766;2023-02-11T16:33:07;9.20;99.90
9980;DHT22;5030;51.532;6.766;2023-02-11T16:35:33;9.20;99.90
9980;DHT22;5030;51.532;6.766;2023-02-11T16:37:59;9.10;99.90
9980;DHT22;5030;51.532;6.766;2023-02-11T16:40:25;9.10;99.90
9980;DHT22;5030;51.532;6.766;2023-02-11T16:42:50;9.20;99.90
9980;DHT22;5030;51.532;6.766;2023-02-11T16:45:17;9.20;99.90
9980;DHT22;5030;51.532;6.766;2023-02-11T16:47:43;9.30;99.90
9980;DHT22;5030;51.532;6.766;2023-02-11T16:50:18;9.20;99.90
9980;DHT22;5030;51.532;6.766;2023-02-11T16:52:46;9.10;99.90
9980;DHT22;5030;51.532;6.766;2023-02-11T16:55:13;9.00;99.90
9980;DHT22;5030;51.532;6.766;2023-02-11T16:57:38;9.00;99.90
9980;DHT22;5030;51.532;6.766;2023-02-11T17:00:05;9.00;99.90
9980;DHT22;5030;51.532;6.766;2023-02-11T17:02:36;9.00;99.90
9980;DHT22;5030;51.532;6.766;2023-02-11T17:05:05;9.00;99.90
9980;DHT22;5030;51.532;6.766;2023-02-11T17:07:31;9.00;99.90
9980;DHT22;5030;51.532;6.766;2023-02-11T17:09:58;9.00;99.90
9980;DHT22;5030;51.532;6.766;2023-02-11T17:12:25;9.00;99.90
9980;DHT22;5030;51.532;6.766;2023-02-11T17:14:51;8.90;99.90
9980;DHT22;5030;51.532;6.766;2023-02-11T17:17:17;8.90;99.90
9980;DHT22;5030;51.532;6.766;2023-02-11T17:19:44;8.90;99.90
9980;DHT22;5030;51.532;6.766;2023-02-11T17:22:13;8.80;99.90
9980;DHT22;5030;51.532;6.766;2023-02-11T17:24:40;8.80;99.90
9980;DHT22;5030;51.532;6.766;2023-02-11T17:27:09;8.80;99.90
9980;DHT22;5030;51.532;6.766;2023-02-11T17:29:35;8.90;99.90
9980;DHT22;5030;51.532;6.766;2023-02-11T17:32:01;8.80;99.90
9980;DHT22;5030;51.532;6.766;2023-02-11T17:34:27;8.90;99.90
9980;DHT22;5030;51.532;6.766;2023-02-11T17:36:54;9.00;99.90
9980;DHT22;5030;51.532;6.766;2023-02-11T17:39:20;8.90;99.90
9980;DHT22;5030;51.532;6.766;2023-02-11T17:41:46;8.80;99.90
9980;DHT22;5030;51.532;6.766;2023-02-11T17:44:13;8.70;99.90
9980;DHT22;5030;51.532;6.766;2023-02-11T17:46:40;8.60;99.90
9980;DHT22;5030;51.532;6.766;2023-02-11T17:49:06;8.60;99.90
9980;DHT22;5030;51.532;6.766;2023-02-11T17:51:35;8.60;99.90
9980;DHT22;5030;51.532;6.766;2023-02-11T17:54:08;8.50;99.90
9980;DHT22;5030;51.532;6.766;2023-02-11T17:56:38;8.60;99.90
9980;DHT22;5030;51.532;6.766;2023-02-11T17:59:06;8.60;99.90
9980;DHT22;5030;51.532;6.766;2023-02-11T18:01:33;8.60;99.90
9980;DHT22;5030;51.532;6.766;2023-02-11T18:04:00;8.60;99.90
9980;DHT22;5030;51.532;6.766;2023-02-11T18:06:26;8.60;99.90
9980;DHT22;5030;51.532;6.766;2023-02-11T18:08:53;8.70;99.90
9980;DHT22;5030;51.532;6.766;2023-02-11T18:11:25;8.60;99.90
9980;DHT22;5030;51.532;6.766;2023-02-11T18:13:52;8.50;99.90
9980;DHT22;5030;51.532;6.766;2023-02-11T18:16:22;8.50;99.90
9980;DHT22;5030;51.532;6.766;2023-02-11T18:18:48;8.70;99.90
9980;DHT22;5030;51.532;6.766;2023-02-11T18:21:19;8.70;99.90
9980;DHT22;5030;51.532;6.766;2023-02-11T18:23:46;8.70;99.90
9980;DHT22;5030;51.532;6.766;2023-02-11T18:26:13;8.50;99.90
9980;DHT22;5030;51.532;6.766;2023-02-11T18:28:39;8.60;99.90
9980;DHT22;5030;51.532;6.766;2023-02-11T18:31:08;8.60;99.90
9980;DHT22;5030;51.532;6.766;2023-02-11T18:33:36;8.50;99.90
9980;DHT22;5030;51.532;6.766;2023-02-11T18:36:05;8.50;99.90
9980;DHT22;5030;51.532;6.766;2023-02-11T18:38:33;8.50;99.90
9980;DHT22;5030;51.532;6.766;2023-02-11T18:41:01;8.50;99.90
9980;DHT22;5030;51.532;6.766;2023-02-11T18:43:29;8.50;99.90
9980;DHT22;5030;51.532;6.766;2023-02-11T18:45:56;8.60;99.90
9980;DHT22;5030;51.532;6.766;2023-02-11T18:48:22;8.50;99.90
9980;DHT22;5030;51.532;6.766;2023-02-11T18:50:49;8.30;99.90
9980;DHT22;5030;51.532;6.766;2023-02-11T18:53:15;8.50;99.90
9980;DHT22;5030;51.532;6.766;2023-02-11T18:55:42;8.60;99.90
9980;DHT22;5030;51.532;6.766;2023-02-11T18:58:08;8.50;99.90
9980;DHT22;5030;51.532;6.766;2023-02-11T19:00:35;8.40;99.90
9980;DHT22;5030;51.532;6.766;2023-02-11T19:03:05;8.60;99.90
9980;DHT22;5030;51.532;6.766;2023-02-11T19:05:38;8.60;99.90
9980;DHT22;5030;51.532;6.766;2023-02-11T19:08:07;8.40;99.90
9980;DHT22;5030;51.532;6.766;2023-02-11T19:10:33;8.60;99.90
9980;DHT22;5030;51.532;6.766;2023-02-11T19:12:59;8.40;99.90